Latest Weather Observations for Warruwi

IDD60801

Issued at 9:31 am CST Sunday 1 May 2016 (issued every 30 minutes, with the page automatically refreshed every 10 minutes)

About weather observations | Map of weather stations | Latest weather observations for NT | Other Formats
Station Details ID: 014401 Name: WARRUWI AIRPORT Lat: -11.65 Lon: 133.38 Height: 19.2 m
Data from the previous 72 hours. | See also: Recent months at Warruwi
Date/Time
CST
Temp
°C
App
Temp
°C
Dew
Point
Rel
Hum
%
Delta-T
°C
Wind Press
QNH
hPa
Press
MSL
hPa
Rain
since 9 am
mm
Dir
 
Spd
km/h
Gust
km/h
Spd
kts
Gust
kts
01/09:30am 29.9 32.4 24.8 74 3.6 ESE 20 32 11 17 1012.0 1011.8 0.0
01/09:00am 29.6 32.3 25.1 77 3.2 ESE 20 30 11 16 1011.9 1011.7 0.0
01/08:30am 29.0 32.2 25.0 79 2.8 ESE 17 24 9 13 1011.8 1011.6 0.0
01/08:00am 28.4 32.0 25.0 82 2.4 SE 15 22 8 12 1011.7 1011.5 0.0
01/07:30am 27.8 30.9 24.8 84 2.1 SE 17 24 9 13 1011.6 1011.4 0.0
01/07:00am 27.8 30.9 24.8 84 2.1 SE 17 22 9 12 1011.6 1011.4 0.0
01/06:30am 27.9 31.4 24.9 84 2.1 SE 15 22 8 12 1011.4 1011.2 0.0
01/06:00am 28.2 30.9 24.8 82 2.4 ESE 19 26 10 14 1011.2 1011.0 0.0
01/05:30am 28.3 31.5 24.9 82 2.4 ESE 17 28 9 15 1010.8 1010.6 0.0
01/05:00am 28.0 31.5 24.8 83 2.2 ESE 15 19 8 10 1010.6 1010.4 0.0
01/04:30am 27.8 31.5 24.6 83 2.2 ESE 13 22 7 12 1010.3 1010.1 0.0
01/04:00am 27.8 31.8 24.4 82 2.4 SE 11 17 6 9 1010.4 1010.2 0.0
01/03:30am 27.9 32.0 24.5 82 2.4 SE 11 19 6 10 1010.3 1010.1 0.0
01/03:00am 28.0 32.0 24.4 81 2.5 SE 11 17 6 9 1010.2 1010.0 0.0
01/02:30am 28.1 31.7 24.3 80 2.6 SE 13 20 7 11 1010.2 1010.0 0.0
01/02:00am 28.3 31.6 24.5 80 2.6 SE 15 20 8 11 1010.4 1010.2 0.0
01/01:30am 28.2 31.8 24.4 80 2.6 SE 13 19 7 10 1010.8 1010.6 0.0
01/01:00am 28.3 31.0 24.1 78 2.9 ESE 17 22 9 12 1011.2 1011.0 0.0
01/12:30am 28.6 31.8 24.4 78 2.9 SE 15 20 8 11 1011.5 1011.3 0.0
01/12:00am 28.6 32.3 24.6 79 2.8 ESE 13 19 7 10 1011.6 1011.4 0.0
 
Date/Time
CST
Temp
°C
App
Temp
°C
Dew
Point
Rel
Hum
%
Delta-T
°C
Wind Press
QNH
hPa
Press
MSL
hPa
Rain
since 9 am
mm
Dir
 
Spd
km/h
Gust
km/h
Spd
kts
Gust
kts
30/11:30pm 28.6 32.2 24.4 78 2.9 ESE 13 20 7 11 1011.7 1011.5 0.0
30/11:00pm 28.8 31.7 23.9 75 3.4 ESE 15 20 8 11 1011.7 1011.5 0.0
30/10:30pm 28.9 32.6 24.5 77 3.1 ESE 13 19 7 10 1011.7 1011.5 0.0
30/10:00pm 28.9 32.4 24.9 79 2.8 SE 15 20 8 11 1011.7 1011.5 0.0
30/09:30pm 29.3 33.9 25.3 79 2.8 ESE 11 15 6 8 1011.8 1011.6 0.0
30/09:00pm 29.3 33.5 25.3 79 2.8 ESE 13 19 7 10 1011.5 1011.3 0.0
30/08:30pm 29.4 33.5 25.2 78 3.0 ESE 13 19 7 10 1011.2 1011.0 0.0
30/08:00pm 29.4 33.7 24.9 77 3.2 E 11 17 6 9 1010.6 1010.4 0.0
30/07:30pm 29.3 33.8 24.6 76 3.3 E 9 17 5 9 1010.3 1010.1 0.0
30/07:00pm 29.4 33.3 24.9 77 3.2 E 13 20 7 11 1010.3 1010.1 0.0
30/06:30pm 29.6 32.7 24.2 73 3.8 E 15 22 8 12 1009.9 1009.7 0.0
30/06:00pm 30.0 33.2 24.9 74 3.6 E 17 22 9 12 1009.7 1009.5 0.0
30/05:30pm 30.5 33.1 24.6 70 4.1 E 19 28 10 15 1009.6 1009.4 0.0
30/05:00pm 30.8 33.3 24.4 68 4.5 E 19 26 10 14 1009.1 1008.9 0.0
30/04:30pm 31.1 33.8 24.7 68 4.5 E 19 26 10 14 1008.7 1008.5 0.0
30/04:00pm 31.1 33.6 24.5 68 4.6 E 19 26 10 14 1008.5 1008.3 0.0
30/03:30pm 31.5 35.5 25.6 71 4.2 E 15 24 8 13 1008.7 1008.5 0.0
30/03:00pm 31.2 34.5 25.1 70 4.3 E 17 24 9 13 1009.1 1008.9 0.0
30/02:30pm 31.4 33.6 24.8 68 4.6 E 22 30 12 16 1009.5 1009.3 0.0
30/02:00pm 31.8 35.2 25.2 68 4.7 E 17 28 9 15 1009.6 1009.4 0.0
30/01:30pm 31.8 34.6 24.9 67 4.9 E 19 26 10 14 1010.3 1010.1 0.0
30/01:00pm 32.7 35.2 24.7 62 5.6 E 20 28 11 15 1010.7 1010.5 0.0
30/12:30pm 32.9 36.3 24.6 61 5.8 E 15 22 8 12 1011.2 1011.0 0.0
30/12:00pm 32.5 34.9 24.3 62 5.7 E 19 26 10 14 1011.8 1011.6 0.0
30/11:30am 32.2 35.0 24.3 63 5.5 E 17 24 9 13 1012.2 1012.0 0.0
30/11:00am 31.5 34.2 24.1 65 5.2 ESE 17 24 9 13 1012.7 1012.5 0.0
30/10:30am 31.3 34.0 24.2 66 5.0 SE 17 24 9 13 1013.0 1012.8 0.0
30/10:00am 31.0 33.2 23.9 66 4.9 ESE 19 26 10 14 1013.0 1012.8 0.0
30/09:30am 30.5 32.7 23.9 68 4.6 SE 19 28 10 15 1013.1 1012.9 0.0
30/09:00am 30.1 33.5 23.3 67 4.7 SSE 11 17 6 9 1013.2 1013.0 0.0
30/08:30am 29.8 33.3 23.5 69 4.3 SSE 11 17 6 9 1013.0 1012.8 0.0
30/08:00am 29.4 33.5 24.0 72 3.7 SSE 9 13 5 7 1012.8 1012.6 0.0
30/07:30am 28.1 33.4 24.9 83 2.2 S 6 9 3 5 1012.7 1012.5 0.0
30/07:00am 27.1 32.6 24.7 87 1.7 SSW 4 4 2 2 1012.2 1012.0 0.0
30/06:30am 27.3 32.8 24.7 86 1.8 S 4 6 2 3 1011.9 1011.7 0.0
30/06:00am 27.4 33.0 24.8 86 1.8 S 4 6 2 3 1011.5 1011.3 0.0
30/05:30am 27.5 33.0 24.7 85 2.0 SSE 4 7 2 4 1011.5 1011.3 0.0
30/05:00am 27.6 32.8 24.8 85 2.0 S 6 9 3 5 1011.3 1011.1 0.0
30/04:30am 27.8 33.1 25.0 85 2.0 SSE 6 7 3 4 1011.1 1010.9 0.0
30/04:00am 27.8 33.4 24.8 84 2.1 SE 4 6 2 3 1010.8 1010.6 0.0
30/03:30am 27.7 33.3 24.9 85 2.0 SE 4 4 2 2 1010.6 1010.4 0.0
30/03:00am 27.8 33.4 24.8 84 2.1 S 4 4 2 2 1010.7 1010.5 0.0
30/02:30am 27.8 33.4 24.8 84 2.1 SSW 4 4 2 2 1010.6 1010.4 0.0
30/02:00am 27.9 33.8 24.7 83 2.2 SSW 2 4 1 2 1010.8 1010.6 0.0
30/01:30am 27.9 33.5 24.9 84 2.1 S 4 7 2 4 1011.2 1011.0 0.0
30/01:00am 28.0 33.6 25.4 86 1.8 SSW 6 7 3 4 1011.7 1011.5 0.0
30/12:30am 27.6 34.1 25.0 86 1.8 CALM 0 0 0 0 1011.7 1011.5 0.0
30/12:00am 27.5 33.9 24.9 86 1.8 CALM 0 0 0 0 1012.0 1011.8 0.0
 
Date/Time
CST
Temp
°C
App
Temp
°C
Dew
Point
Rel
Hum
%
Delta-T
°C
Wind Press
QNH
hPa
Press
MSL
hPa
Rain
since 9 am
mm
Dir
 
Spd
km/h
Gust
km/h
Spd
kts
Gust
kts
29/11:30pm 27.6 34.1 25.0 86 1.8 CALM 0 0 0 0 1012.4 1012.2 0.0
29/11:00pm 27.7 34.1 24.9 85 2.0 CALM 0 0 0 0 1012.6 1012.4 0.0
29/10:30pm 27.7 34.1 24.9 85 2.0 CALM 0 2 0 1 1012.7 1012.5 0.0
29/10:00pm 27.8 34.0 24.6 83 2.2 CALM 0 0 0 0 1012.7 1012.5 0.0
29/09:30pm 27.8 33.1 24.4 82 2.4 NNE 4 6 2 3 1012.6 1012.4 0.0
29/09:00pm 27.9 33.9 24.3 81 2.5 CALM 0 4 0 2 1012.3 1012.1 0.0
29/08:30pm 28.3 34.2 24.1 78 2.9 CALM 0 2 0 1 1012.1 1011.9 0.0
29/08:00pm 28.7 34.2 24.0 76 3.3 NNE 2 6 1 3 1011.7 1011.5 0.0
29/07:30pm 28.9 34.0 24.0 75 3.4 ENE 4 6 2 3 1011.2 1011.0 0.0
29/07:00pm 29.2 34.0 24.1 74 3.5 ENE 6 11 3 6 1010.8 1010.6 0.0
29/06:30pm 29.4 33.8 23.8 72 3.9 NE 7 15 4 8 1010.6 1010.4 0.0
29/06:00pm 30.0 34.2 23.4 67 4.5 NE 7 13 4 7 1010.3 1010.1 0.0
29/05:30pm 30.5 33.9 22.7 63 5.3 NE 9 17 5 9 1010.0 1009.8 0.0
29/05:00pm 31.5 34.6 21.4 55 6.8 NE 7 11 4 6 1009.6 1009.4 0.0
29/04:30pm 32.0 34.8 20.9 52 7.4 NE 7 13 4 7 1009.4 1009.2 0.0
29/04:00pm 32.2 34.7 21.7 54 7.1 ENE 11 17 6 9 1009.4 1009.2 0.0
29/03:30pm 32.5 35.5 22.0 54 7.2 NE 9 17 5 9 1009.3 1009.1 0.0
29/03:00pm 32.9 35.4 21.7 51 7.6 ENE 11 15 6 8 1009.4 1009.2 0.0
29/02:30pm 32.7 35.1 21.5 51 7.6 ENE 11 15 6 8 1009.8 1009.6 0.0
29/02:00pm 33.5 36.8 22.6 53 7.5 E 9 13 5 7 1010.2 1010.0 0.0
29/01:30pm 32.6 36.4 23.5 58 6.3 E 9 17 5 9 1010.5 1010.3 0.0
29/01:00pm 32.2 35.3 22.9 58 6.4 E 11 17 6 9 1011.0 1010.8 0.0
29/12:30pm 31.6 34.3 22.9 60 6.0 E 13 19 7 10 1011.5 1011.3 0.0
29/12:00pm 31.6 34.6 23.4 61 5.7 E 13 17 7 9 1012.0 1011.8 0.0
29/11:30am 31.4 34.8 22.7 60 6.0 ENE 9 15 5 8 1012.6 1012.4 0.0
29/11:00am 30.9 32.7 21.9 58 6.1 ESE 15 20 8 11 1013.1 1012.9 0.0
29/10:30am 30.9 32.7 21.9 58 6.1 ESE 15 19 8 10 1013.3 1013.1 0.0
29/10:00am 30.6 33.0 22.2 61 5.7 ESE 13 20 7 11 1013.3 1013.1 0.0
29/09:30am 29.9 32.5 22.6 65 5.0 ESE 13 19 7 10 1013.3 1013.1 0.0
29/09:00am 29.6 32.3 22.8 67 4.6 ESE 13 20 7 11 1013.2 1013.0 0.0
29/08:30am 28.6 31.8 23.1 72 3.8 SE 11 15 6 8 1013.2 1013.0 0.0
29/08:00am 28.1 31.7 23.7 77 3.0 SE 11 15 6 8 1012.9 1012.7 0.0
29/07:30am 27.5 32.0 23.9 81 2.5 SE 7 11 4 6 1012.6 1012.4 0.0
29/07:00am 26.6 31.1 23.9 85 1.9 SE 7 11 4 6 1012.1 1011.9 0.0
29/06:30am 26.7 30.8 24.0 85 1.9 SE 9 13 5 7 1011.8 1011.6 0.0
29/06:00am 27.1 31.0 24.2 84 2.0 SE 11 19 6 10 1011.6 1011.4 0.0
29/05:30am 27.2 29.9 24.1 83 2.1 ESE 17 24 9 13 1011.4 1011.2 0.0
29/05:00am 28.4 31.8 23.3 74 3.5 ESE 11 15 6 8 1011.2 1011.0 0.0
29/04:30am 27.5 32.9 25.1 87 1.7 E 6 9 3 5 1010.9 1010.7 0.0
29/04:00am 26.9 33.0 25.1 90 1.3 NE 2 4 1 2 1010.8 1010.6 0.0
29/03:30am 26.9 33.4 25.1 90 1.3 CALM 0 0 0 0 1011.0 1010.8 0.0
29/03:00am 27.0 33.0 24.8 88 1.5 ENE 2 4 1 2 1011.1 1010.9 0.0
29/02:30am 27.1 33.5 24.9 88 1.5 CALM 0 4 0 2 1011.4 1011.2 0.0
29/02:00am 27.3 33.6 24.7 86 1.8 CALM 0 0 0 0 1011.5 1011.3 0.0
29/01:30am 27.7 34.0 24.7 84 2.1 CALM 0 0 0 0 1011.6 1011.4 0.0
29/01:00am 27.9 33.8 24.7 83 2.2 NE 2 4 1 2 1011.7 1011.5 0.0
29/12:30am 28.0 34.2 24.6 82 2.4 CALM 0 0 0 0 1012.2 1012.0 0.0
29/12:00am 28.4 34.6 24.6 80 2.6 CALM 0 0 0 0 1012.3 1012.1 0.0
 
Date/Time
CST
Temp
°C
App
Temp
°C
Dew
Point
Rel
Hum
%
Delta-T
°C
Wind Press
QNH
hPa
Press
MSL
hPa
Rain
since 9 am
mm
Dir
 
Spd
km/h
Gust
km/h
Spd
kts
Gust
kts
28/11:30pm 28.7 35.0 24.7 79 2.8 CALM 0 2 0 1 1012.3 1012.1 0.0
28/11:00pm 28.6 34.4 24.6 79 2.8 NNE 2 4 1 2 1012.2 1012.0 0.0
28/10:30pm 28.8 35.1 24.8 79 2.8 CALM 0 2 0 1 1012.3 1012.1 0.0
28/10:00pm 28.9 35.3 24.9 79 2.8 CALM 0 4 0 2 1012.3 1012.1 0.0
28/09:30pm 28.9 35.4 25.1 80 2.7 CALM 0 0 0 0 1012.3 1012.1 0.0
28/09:00pm 28.7 34.7 24.9 80 2.7 ENE 2 4 1 2 1011.8 1011.6 0.0
28/08:30pm 28.5 34.6 24.5 79 2.8 CALM 0 0 0 0 1011.4 1011.2 0.0
28/08:00pm 28.8 34.9 24.4 77 3.1 CALM 0 2 0 1 1010.8 1010.6 0.0
28/07:30pm 28.9 34.3 24.5 77 3.1 NE 4 6 2 3 1010.5 1010.3 0.0
28/07:00pm 29.0 33.8 24.1 75 3.4 ENE 6 9 3 5 1010.2 1010.0 0.0
28/06:30pm 29.3 33.8 23.7 72 3.9 NE 6 11 3 6 1010.0 1009.8 0.0
28/06:00pm 30.1 34.5 23.8 69 4.4 NE 7 15 4 8 1009.9 1009.7 0.0
28/05:30pm 30.9 35.3 23.5 64 5.1 NE 6 9 3 5 1009.8 1009.6 0.0
28/05:00pm 31.2 35.0 24.1 66 4.9 ENE 11 24 6 13 1009.5 1009.3 0.0
28/04:30pm 30.8 34.3 24.2 68 4.6 ENE 13 20 7 11 1009.1 1008.9 0.0
28/04:00pm 31.3 34.9 24.4 66 4.8 E 13 20 7 11 1009.1 1008.9 0.0
28/03:30pm 31.1 34.6 24.2 66 4.8 E 13 20 7 11 1009.1 1008.9 0.0
28/03:00pm 31.1 34.1 24.0 66 4.9 E 15 20 8 11 1009.3 1009.1 0.0
28/02:30pm 31.3 34.5 24.4 66 4.8 E 15 24 8 13 1009.5 1009.3 0.0
28/02:00pm 31.1 34.2 24.2 66 4.8 E 15 22 8 12 1009.8 1009.6 0.0
28/01:30pm 30.9 33.4 23.8 66 4.9 E 17 24 9 13 1010.2 1010.0 0.0
28/01:00pm 31.3 33.7 23.7 64 5.3 E 17 24 9 13 1010.5 1010.3 0.0
28/12:30pm 31.1 33.6 23.2 63 5.4 E 15 20 8 11 1010.9 1010.7 0.0
28/12:00pm 31.6 35.2 23.7 63 5.5 E 11 20 6 11 1011.3 1011.1 0.0
28/11:30am 31.1 33.4 23.5 64 5.3 E 17 22 9 12 1011.6 1011.4 0.0
28/11:00am 30.7 32.4 23.1 64 5.2 ESE 19 24 10 13 1012.0 1011.8 0.0
28/10:30am 30.6 32.4 23.3 65 5.0 ESE 19 24 10 13 1012.0 1011.8 0.0
28/10:00am 30.6 32.3 23.0 64 5.2 E 19 24 10 13 1012.1 1011.9 0.0

Other Formats:

Comma delimited format used in spreadsheet applications
http://www.bom.gov.au/fwo/IDD60801/IDD60801.94139.axf

JavaScript Object Notation format (JSON) in row-major order
http://www.bom.gov.au/fwo/IDD60801/IDD60801.94139.json